Hovedside
METAR-TAF:

METAR-TAF

Lufthavner :

Norrköping, Sverige

Norrköping lufthavn

breddegrad: 58-35N, lengdegrad: 016-09E, høyde over havet: 34 m

Gjeldene værobservasjon

Denne rapporten ble laget for 19 minutter siden, klokken 07:20 UTC
Vind 14 kt fra Vest
Temperatur 12°C
Luftfuktighet 54%
Trykk 1010 hPa
Sikt 10 km eller mer
ingen skyer under 1500 m og ingen bygeskyer

METAR: ESSP 210720Z 28014KT CAVOK 12/03 Q1010

Tid: 09:39 (07:39 UTC)

Varsel

Denne rapporten ble laget for 2 timer og 9 minutter siden, klokken 05:30 UTC
Varsel gyldig fra 21. klokken 06 UTC til 21. klokken 11 UTC
Vind 12 kt fra Vest
Sikt 10 km eller mer
ingen skyer under 1500 m og ingen bygeskyer

TAF: ESSP 210530Z 2106/2111 27012KT CAVOK

Værobservasjoner og værvarsel for over 4000 flyplasser (METAR- og TAF-rapporter).

Tilgjengelige stasjoner er representert av de røde og gule prikkene på kartet.

Hold musepekeren over prikken for å se navnet på stasjonen.

Klikk så for å se værobservasjoner og -varsler.

For å forandre kartet kan du klikke på den grønne knappen med svart kryss for å zoome inn, på den grønne knappen med strek for å zoome ut, eller på de grønne pilene for å se tilstøtende kart.


METAR-TAF: